sensor_id;sensor_type;location;lat;lon;timestamp;P1;durP1;ratioP1;P2;durP2;ratioP2
8421;SDS011;4248;48.196;10.924;2022-10-26T00:01:25;6.47;;;3.70;;
8421;SDS011;4248;48.196;10.924;2022-10-26T00:03:53;5.67;;;3.80;;
8421;SDS011;4248;48.196;10.924;2022-10-26T00:06:20;9.00;;;3.93;;
8421;SDS011;4248;48.196;10.924;2022-10-26T00:08:49;7.93;;;4.00;;
8421;SDS011;4248;48.196;10.924;2022-10-26T00:11:15;5.10;;;3.87;;
8421;SDS011;4248;48.196;10.924;2022-10-26T00:13:42;6.70;;;3.23;;
8421;SDS011;4248;48.196;10.924;2022-10-26T00:16:09;10.70;;;3.93;;
8421;SDS011;4248;48.196;10.924;2022-10-26T00:18:37;7.90;;;3.87;;
8421;SDS011;4248;48.196;10.924;2022-10-26T00:21:03;9.70;;;4.40;;
8421;SDS011;4248;48.196;10.924;2022-10-26T00:23:30;7.93;;;3.90;;
8421;SDS011;4248;48.196;10.924;2022-10-26T00:25:56;8.77;;;4.50;;
8421;SDS011;4248;48.196;10.924;2022-10-26T00:28:22;15.83;;;4.10;;
8421;SDS011;4248;48.196;10.924;2022-10-26T00:30:48;7.40;;;3.73;;
8421;SDS011;4248;48.196;10.924;2022-10-26T00:33:15;12.23;;;4.10;;
8421;SDS011;4248;48.196;10.924;2022-10-26T00:35:40;12.60;;;3.90;;
8421;SDS011;4248;48.196;10.924;2022-10-26T00:38:06;9.17;;;4.13;;
8421;SDS011;4248;48.196;10.924;2022-10-26T00:40:32;7.60;;;3.47;;
8421;SDS011;4248;48.196;10.924;2022-10-26T00:42:57;6.83;;;3.53;;
8421;SDS011;4248;48.196;10.924;2022-10-26T00:45:26;8.27;;;3.93;;
8421;SDS011;4248;48.196;10.924;2022-10-26T00:50:32;9.23;;;4.03;;
8421;SDS011;4248;48.196;10.924;2022-10-26T00:53:01;9.57;;;3.07;;
8421;SDS011;4248;48.196;10.924;2022-10-26T00:55:30;10.03;;;3.70;;
8421;SDS011;4248;48.196;10.924;2022-10-26T00:57:58;5.47;;;3.73;;
8421;SDS011;4248;48.196;10.924;2022-10-26T01:00:26;11.07;;;3.77;;
8421;SDS011;4248;48.196;10.924;2022-10-26T01:02:52;5.53;;;3.70;;
8421;SDS011;4248;48.196;10.924;2022-10-26T01:05:21;5.50;;;3.33;;
8421;SDS011;4248;48.196;10.924;2022-10-26T01:07:48;5.93;;;3.60;;
8421;SDS011;4248;48.196;10.924;2022-10-26T01:10:15;7.10;;;3.30;;
8421;SDS011;4248;48.196;10.924;2022-10-26T01:12:42;5.27;;;3.17;;
8421;SDS011;4248;48.196;10.924;2022-10-26T01:15:09;5.50;;;3.83;;
8421;SDS011;4248;48.196;10.924;2022-10-26T01:30:56;5.40;;;3.10;;
8421;SDS011;4248;48.196;10.924;2022-10-26T01:33:48;6.57;;;2.97;;
8421;SDS011;4248;48.196;10.924;2022-10-26T01:36:29;7.10;;;3.60;;
8421;SDS011;4248;48.196;10.924;2022-10-26T01:41:46;6.47;;;3.50;;
8421;SDS011;4248;48.196;10.924;2022-10-26T01:44:18;7.00;;;3.30;;
8421;SDS011;4248;48.196;10.924;2022-10-26T01:46:48;4.90;;;3.23;;
8421;SDS011;4248;48.196;10.924;2022-10-26T01:49:15;7.93;;;2.90;;
8421;SDS011;4248;48.196;10.924;2022-10-26T01:51:46;7.30;;;3.60;;
8421;SDS011;4248;48.196;10.924;2022-10-26T01:54:13;5.87;;;3.83;;
8421;SDS011;4248;48.196;10.924;2022-10-26T01:56:40;9.43;;;3.77;;
8421;SDS011;4248;48.196;10.924;2022-10-26T02:02:07;9.33;;;4.10;;
8421;SDS011;4248;48.196;10.924;2022-10-26T02:04:51;7.17;;;4.30;;
8421;SDS011;4248;48.196;10.924;2022-10-26T02:15:42;7.60;;;3.40;;
8421;SDS011;4248;48.196;10.924;2022-10-26T02:20:57;6.63;;;2.87;;
8421;SDS011;4248;48.196;10.924;2022-10-26T02:23:27;5.53;;;2.90;;
8421;SDS011;4248;48.196;10.924;2022-10-26T02:25:56;7.43;;;2.50;;
8421;SDS011;4248;48.196;10.924;2022-10-26T02:28:27;10.57;;;2.70;;
8421;SDS011;4248;48.196;10.924;2022-10-26T02:30:57;10.23;;;2.97;;
8421;SDS011;4248;48.196;10.924;2022-10-26T02:33:25;12.50;;;2.67;;
8421;SDS011;4248;48.196;10.924;2022-10-26T02:35:54;4.33;;;2.50;;
8421;SDS011;4248;48.196;10.924;2022-10-26T02:38:24;8.27;;;2.60;;
8421;SDS011;4248;48.196;10.924;2022-10-26T02:40:53;6.60;;;2.73;;
8421;SDS011;4248;48.196;10.924;2022-10-26T02:43:22;3.77;;;2.37;;
8421;SDS011;4248;48.196;10.924;2022-10-26T02:46:03;4.70;;;2.60;;
8421;SDS011;4248;48.196;10.924;2022-10-26T02:48:32;5.20;;;2.60;;
8421;SDS011;4248;48.196;10.924;2022-10-26T02:50:59;7.23;;;2.33;;
8421;SDS011;4248;48.196;10.924;2022-10-26T02:53:55;10.13;;;3.17;;
8421;SDS011;4248;48.196;10.924;2022-10-26T02:56:30;6.70;;;2.67;;
8421;SDS011;4248;48.196;10.924;2022-10-26T02:59:01;4.67;;;2.47;;
8421;SDS011;4248;48.196;10.924;2022-10-26T03:01:29;5.90;;;2.90;;
8421;SDS011;4248;48.196;10.924;2022-10-26T03:03:57;5.70;;;2.73;;
8421;SDS011;4248;48.196;10.924;2022-10-26T03:06:23;14.80;;;2.57;;
8421;SDS011;4248;48.196;10.924;2022-10-26T03:08:50;3.40;;;2.20;;
8421;SDS011;4248;48.196;10.924;2022-10-26T03:11:16;7.87;;;2.30;;
8421;SDS011;4248;48.196;10.924;2022-10-26T03:13:42;5.07;;;2.57;;
8421;SDS011;4248;48.196;10.924;2022-10-26T03:16:08;8.93;;;2.57;;
8421;SDS011;4248;48.196;10.924;2022-10-26T03:18:34;5.60;;;2.87;;
8421;SDS011;4248;48.196;10.924;2022-10-26T03:21:00;5.20;;;2.90;;
8421;SDS011;4248;48.196;10.924;2022-10-26T03:23:25;4.90;;;2.93;;
8421;SDS011;4248;48.196;10.924;2022-10-26T03:25:55;5.80;;;2.20;;
8421;SDS011;4248;48.196;10.924;2022-10-26T03:28:21;5.80;;;2.80;;
8421;SDS011;4248;48.196;10.924;2022-10-26T03:30:47;6.73;;;2.50;;
8421;SDS011;4248;48.196;10.924;2022-10-26T03:33:12;4.30;;;2.07;;
8421;SDS011;4248;48.196;10.924;2022-10-26T03:35:39;6.03;;;2.90;;
8421;SDS011;4248;48.196;10.924;2022-10-26T03:38:04;3.90;;;2.40;;
8421;SDS011;4248;48.196;10.924;2022-10-26T03:40:30;4.97;;;2.63;;
8421;SDS011;4248;48.196;10.924;2022-10-26T03:42:56;5.33;;;2.90;;
8421;SDS011;4248;48.196;10.924;2022-10-26T03:45:21;5.60;;;2.70;;
8421;SDS011;4248;48.196;10.924;2022-10-26T03:47:48;3.60;;;2.50;;
8421;SDS011;4248;48.196;10.924;2022-10-26T03:50:14;5.93;;;2.60;;
8421;SDS011;4248;48.196;10.924;2022-10-26T03:52:42;3.40;;;2.53;;
8421;SDS011;4248;48.196;10.924;2022-10-26T03:55:08;8.90;;;2.40;;
8421;SDS011;4248;48.196;10.924;2022-10-26T03:57:35;8.87;;;2.57;;
8421;SDS011;4248;48.196;10.924;2022-10-26T04:00:08;8.50;;;2.87;;
8421;SDS011;4248;48.196;10.924;2022-10-26T04:02:35;6.50;;;2.60;;
8421;SDS011;4248;48.196;10.924;2022-10-26T04:05:01;6.07;;;2.63;;
8421;SDS011;4248;48.196;10.924;2022-10-26T04:07:26;3.80;;;2.30;;
8421;SDS011;4248;48.196;10.924;2022-10-26T04:09:52;8.10;;;2.17;;
8421;SDS011;4248;48.196;10.924;2022-10-26T04:12:18;7.67;;;2.80;;
8421;SDS011;4248;48.196;10.924;2022-10-26T04:14:43;4.63;;;2.50;;
8421;SDS011;4248;48.196;10.924;2022-10-26T04:17:09;6.20;;;2.97;;
8421;SDS011;4248;48.196;10.924;2022-10-26T04:19:35;7.07;;;2.83;;
8421;SDS011;4248;48.196;10.924;2022-10-26T04:22:00;10.33;;;3.60;;
8421;SDS011;4248;48.196;10.924;2022-10-26T04:24:26;9.50;;;3.53;;
8421;SDS011;4248;48.196;10.924;2022-10-26T04:26:52;6.63;;;3.43;;
8421;SDS011;4248;48.196;10.924;2022-10-26T04:29:17;4.10;;;2.63;;
8421;SDS011;4248;48.196;10.924;2022-10-26T04:31:43;5.50;;;3.20;;
8421;SDS011;4248;48.196;10.924;2022-10-26T04:34:09;4.97;;;2.83;;
8421;SDS011;4248;48.196;10.924;2022-10-26T04:36:34;5.13;;;2.87;;
8421;SDS011;4248;48.196;10.924;2022-10-26T04:39:00;7.30;;;3.30;;
8421;SDS011;4248;48.196;10.924;2022-10-26T04:41:26;13.50;;;2.73;;
8421;SDS011;4248;48.196;10.924;2022-10-26T04:43:52;13.20;;;3.70;;
8421;SDS011;4248;48.196;10.924;2022-10-26T04:46:18;9.10;;;3.30;;
8421;SDS011;4248;48.196;10.924;2022-10-26T04:48:43;9.20;;;3.10;;
8421;SDS011;4248;48.196;10.924;2022-10-26T04:51:09;5.27;;;2.50;;
8421;SDS011;4248;48.196;10.924;2022-10-26T04:53:35;6.40;;;3.00;;
8421;SDS011;4248;48.196;10.924;2022-10-26T04:56:00;6.00;;;3.17;;
8421;SDS011;4248;48.196;10.924;2022-10-26T04:58:27;4.87;;;2.60;;
8421;SDS011;4248;48.196;10.924;2022-10-26T05:00:53;6.83;;;3.53;;
8421;SDS011;4248;48.196;10.924;2022-10-26T05:03:19;6.20;;;3.80;;
8421;SDS011;4248;48.196;10.924;2022-10-26T05:05:45;6.90;;;3.20;;
8421;SDS011;4248;48.196;10.924;2022-10-26T05:08:14;7.53;;;2.00;;
8421;SDS011;4248;48.196;10.924;2022-10-26T05:10:40;2.97;;;2.10;;
8421;SDS011;4248;48.196;10.924;2022-10-26T05:13:06;4.73;;;2.20;;
8421;SDS011;4248;48.196;10.924;2022-10-26T05:15:33;7.00;;;2.40;;
8421;SDS011;4248;48.196;10.924;2022-10-26T05:18:02;7.63;;;2.27;;
8421;SDS011;4248;48.196;10.924;2022-10-26T05:20:30;4.40;;;2.00;;
8421;SDS011;4248;48.196;10.924;2022-10-26T05:22:57;8.80;;;2.17;;
8421;SDS011;4248;48.196;10.924;2022-10-26T05:25:25;8.73;;;2.70;;
8421;SDS011;4248;48.196;10.924;2022-10-26T05:27:55;8.37;;;2.70;;
8421;SDS011;4248;48.196;10.924;2022-10-26T05:30:25;6.47;;;2.70;;
8421;SDS011;4248;48.196;10.924;2022-10-26T05:32:52;3.60;;;1.93;;
8421;SDS011;4248;48.196;10.924;2022-10-26T05:35:22;7.20;;;2.10;;
8421;SDS011;4248;48.196;10.924;2022-10-26T05:37:48;6.43;;;2.20;;
8421;SDS011;4248;48.196;10.924;2022-10-26T05:40:14;4.30;;;2.40;;
8421;SDS011;4248;48.196;10.924;2022-10-26T05:42:41;9.80;;;2.20;;
8421;SDS011;4248;48.196;10.924;2022-10-26T05:45:06;2.93;;;1.70;;
8421;SDS011;4248;48.196;10.924;2022-10-26T05:47:36;5.80;;;2.70;;
8421;SDS011;4248;48.196;10.924;2022-10-26T05:50:06;4.53;;;2.57;;
8421;SDS011;4248;48.196;10.924;2022-10-26T05:52:43;16.93;;;3.77;;
8421;SDS011;4248;48.196;10.924;2022-10-26T05:55:10;5.10;;;2.70;;
8421;SDS011;4248;48.196;10.924;2022-10-26T05:57:38;7.30;;;2.50;;
8421;SDS011;4248;48.196;10.924;2022-10-26T06:00:09;8.90;;;2.83;;
8421;SDS011;4248;48.196;10.924;2022-10-26T06:08:19;4.80;;;1.80;;
8421;SDS011;4248;48.196;10.924;2022-10-26T06:10:46;3.10;;;1.87;;
8421;SDS011;4248;48.196;10.924;2022-10-26T06:13:13;3.27;;;1.70;;
8421;SDS011;4248;48.196;10.924;2022-10-26T06:24:10;5.27;;;1.80;;
8421;SDS011;4248;48.196;10.924;2022-10-26T06:29:24;5.10;;;2.07;;
8421;SDS011;4248;48.196;10.924;2022-10-26T06:32:01;7.47;;;2.00;;
8421;SDS011;4248;48.196;10.924;2022-10-26T06:34:34;5.23;;;2.07;;
8421;SDS011;4248;48.196;10.924;2022-10-26T06:37:02;5.30;;;1.90;;
8421;SDS011;4248;48.196;10.924;2022-10-26T06:39:29;2.50;;;1.60;;
8421;SDS011;4248;48.196;10.924;2022-10-26T06:41:59;5.47;;;2.00;;
8421;SDS011;4248;48.196;10.924;2022-10-26T06:44:25;4.50;;;1.73;;
8421;SDS011;4248;48.196;10.924;2022-10-26T06:46:53;7.80;;;1.90;;
8421;SDS011;4248;48.196;10.924;2022-10-26T06:49:36;4.20;;;1.97;;
8421;SDS011;4248;48.196;10.924;2022-10-26T06:52:27;7.47;;;2.03;;
8421;SDS011;4248;48.196;10.924;2022-10-26T06:54:58;10.43;;;1.67;;
8421;SDS011;4248;48.196;10.924;2022-10-26T06:57:27;5.00;;;1.80;;
8421;SDS011;4248;48.196;10.924;2022-10-26T07:00:13;6.70;;;1.77;;
8421;SDS011;4248;48.196;10.924;2022-10-26T07:02:40;3.37;;;1.77;;
8421;SDS011;4248;48.196;10.924;2022-10-26T07:05:06;6.13;;;2.03;;
8421;SDS011;4248;48.196;10.924;2022-10-26T07:07:36;7.70;;;1.87;;
8421;SDS011;4248;48.196;10.924;2022-10-26T07:10:06;3.60;;;1.53;;
8421;SDS011;4248;48.196;10.924;2022-10-26T07:12:32;3.67;;;1.57;;
8421;SDS011;4248;48.196;10.924;2022-10-26T07:14:58;2.90;;;1.83;;
8421;SDS011;4248;48.196;10.924;2022-10-26T07:17:24;3.30;;;2.10;;
8421;SDS011;4248;48.196;10.924;2022-10-26T07:19:52;4.77;;;2.30;;
8421;SDS011;4248;48.196;10.924;2022-10-26T07:22:18;5.10;;;2.20;;
8421;SDS011;4248;48.196;10.924;2022-10-26T07:24:44;4.10;;;1.83;;
8421;SDS011;4248;48.196;10.924;2022-10-26T07:27:14;5.13;;;2.30;;
8421;SDS011;4248;48.196;10.924;2022-10-26T07:29:40;6.90;;;2.30;;
8421;SDS011;4248;48.196;10.924;2022-10-26T07:32:06;8.40;;;1.73;;
8421;SDS011;4248;48.196;10.924;2022-10-26T07:34:32;6.73;;;3.00;;
8421;SDS011;4248;48.196;10.924;2022-10-26T07:36:58;4.00;;;1.73;;
8421;SDS011;4248;48.196;10.924;2022-10-26T07:39:24;2.40;;;1.70;;
8421;SDS011;4248;48.196;10.924;2022-10-26T07:41:49;7.27;;;1.90;;
8421;SDS011;4248;48.196;10.924;2022-10-26T07:44:15;5.70;;;1.77;;
8421;SDS011;4248;48.196;10.924;2022-10-26T07:46:41;5.20;;;1.80;;
8421;SDS011;4248;48.196;10.924;2022-10-26T07:49:07;4.90;;;1.60;;
8421;SDS011;4248;48.196;10.924;2022-10-26T07:51:32;6.57;;;1.97;;
8421;SDS011;4248;48.196;10.924;2022-10-26T07:53:58;8.00;;;2.67;;
8421;SDS011;4248;48.196;10.924;2022-10-26T07:56:24;3.17;;;2.10;;
8421;SDS011;4248;48.196;10.924;2022-10-26T07:58:51;12.40;;;3.10;;
8421;SDS011;4248;48.196;10.924;2022-10-26T08:01:17;9.73;;;4.00;;
8421;SDS011;4248;48.196;10.924;2022-10-26T08:03:43;6.73;;;3.63;;
8421;SDS011;4248;48.196;10.924;2022-10-26T08:06:09;4.37;;;2.30;;
8421;SDS011;4248;48.196;10.924;2022-10-26T08:08:34;3.60;;;1.83;;
8421;SDS011;4248;48.196;10.924;2022-10-26T08:11:01;7.90;;;2.27;;
8421;SDS011;4248;48.196;10.924;2022-10-26T08:13:27;8.00;;;1.97;;
8421;SDS011;4248;48.196;10.924;2022-10-26T08:15:56;5.77;;;2.23;;
8421;SDS011;4248;48.196;10.924;2022-10-26T08:18:23;6.00;;;1.73;;
8421;SDS011;4248;48.196;10.924;2022-10-26T08:20:48;5.73;;;1.90;;
8421;SDS011;4248;48.196;10.924;2022-10-26T08:23:14;3.90;;;1.80;;
8421;SDS011;4248;48.196;10.924;2022-10-26T08:25:40;11.37;;;1.80;;
8421;SDS011;4248;48.196;10.924;2022-10-26T08:28:05;4.77;;;2.20;;
8421;SDS011;4248;48.196;10.924;2022-10-26T08:30:31;5.70;;;2.07;;
8421;SDS011;4248;48.196;10.924;2022-10-26T08:33:01;5.73;;;1.77;;
8421;SDS011;4248;48.196;10.924;2022-10-26T08:35:31;4.90;;;1.60;;
8421;SDS011;4248;48.196;10.924;2022-10-26T08:37:57;4.20;;;2.13;;
8421;SDS011;4248;48.196;10.924;2022-10-26T08:40:31;9.03;;;1.60;;
8421;SDS011;4248;48.196;10.924;2022-10-26T08:43:04;9.97;;;2.10;;
8421;SDS011;4248;48.196;10.924;2022-10-26T08:45:35;11.23;;;3.17;;
8421;SDS011;4248;48.196;10.924;2022-10-26T08:48:14;3.93;;;1.70;;
8421;SDS011;4248;48.196;10.924;2022-10-26T08:53:26;5.50;;;2.43;;
8421;SDS011;4248;48.196;10.924;2022-10-26T08:58:54;8.83;;;5.07;;
8421;SDS011;4248;48.196;10.924;2022-10-26T09:01:24;5.60;;;1.80;;
8421;SDS011;4248;48.196;10.924;2022-10-26T09:03:50;4.50;;;1.70;;
8421;SDS011;4248;48.196;10.924;2022-10-26T09:22:37;7.53;;;1.50;;
8421;SDS011;4248;48.196;10.924;2022-10-26T09:25:15;3.67;;;1.73;;
8421;SDS011;4248;48.196;10.924;2022-10-26T09:27:46;14.47;;;7.33;;
8421;SDS011;4248;48.196;10.924;2022-10-26T09:30:17;4.80;;;1.90;;
8421;SDS011;4248;48.196;10.924;2022-10-26T09:32:46;5.10;;;1.70;;
8421;SDS011;4248;48.196;10.924;2022-10-26T09:38:23;4.30;;;1.93;;
8421;SDS011;4248;48.196;10.924;2022-10-26T09:41:55;3.80;;;1.70;;
8421;SDS011;4248;48.196;10.924;2022-10-26T09:46:31;3.97;;;2.17;;
8421;SDS011;4248;48.196;10.924;2022-10-26T09:49:10;4.03;;;1.90;;
8421;SDS011;4248;48.196;10.924;2022-10-26T09:51:40;9.00;;;2.17;;
8421;SDS011;4248;48.196;10.924;2022-10-26T09:54:15;6.40;;;2.27;;
8421;SDS011;4248;48.196;10.924;2022-10-26T09:56:43;7.87;;;1.83;;
8421;SDS011;4248;48.196;10.924;2022-10-26T09:59:19;6.40;;;1.80;;
8421;SDS011;4248;48.196;10.924;2022-10-26T10:01:47;7.63;;;1.83;;
8421;SDS011;4248;48.196;10.924;2022-10-26T10:06:47;5.97;;;1.47;;
8421;SDS011;4248;48.196;10.924;2022-10-26T10:09:33;5.90;;;1.80;;
8421;SDS011;4248;48.196;10.924;2022-10-26T10:12:00;5.33;;;1.50;;
8421;SDS011;4248;48.196;10.924;2022-10-26T10:14:37;3.70;;;1.60;;
8421;SDS011;4248;48.196;10.924;2022-10-26T10:17:05;4.70;;;1.60;;
8421;SDS011;4248;48.196;10.924;2022-10-26T10:19:40;3.90;;;1.60;;
8421;SDS011;4248;48.196;10.924;2022-10-26T10:24:35;10.03;;;2.30;;
8421;SDS011;4248;48.196;10.924;2022-10-26T10:27:07;8.27;;;2.60;;
8421;SDS011;4248;48.196;10.924;2022-10-26T10:29:51;6.33;;;2.00;;
8421;SDS011;4248;48.196;10.924;2022-10-26T10:32:23;5.60;;;2.10;;
8421;SDS011;4248;48.196;10.924;2022-10-26T10:34:54;8.60;;;1.93;;
8421;SDS011;4248;48.196;10.924;2022-10-26T10:37:29;10.80;;;1.77;;
8421;SDS011;4248;48.196;10.924;2022-10-26T10:39:56;9.17;;;1.97;;
8421;SDS011;4248;48.196;10.924;2022-10-26T10:42:31;10.60;;;2.47;;
8421;SDS011;4248;48.196;10.924;2022-10-26T10:45:03;9.27;;;2.50;;
8421;SDS011;4248;48.196;10.924;2022-10-26T10:47:33;5.87;;;2.70;;
8421;SDS011;4248;48.196;10.924;2022-10-26T10:50:01;9.43;;;2.20;;
8421;SDS011;4248;48.196;10.924;2022-10-26T10:52:43;11.80;;;2.17;;
8421;SDS011;4248;48.196;10.924;2022-10-26T10:55:14;7.00;;;2.10;;
8421;SDS011;4248;48.196;10.924;2022-10-26T11:00:36;7.30;;;2.03;;
8421;SDS011;4248;48.196;10.924;2022-10-26T11:08:31;10.70;;;2.00;;
8421;SDS011;4248;48.196;10.924;2022-10-26T11:13:51;10.53;;;1.90;;
8421;SDS011;4248;48.196;10.924;2022-10-26T11:16:24;8.43;;;2.43;;
8421;SDS011;4248;48.196;10.924;2022-10-26T11:19:06;12.00;;;2.30;;
8421;SDS011;4248;48.196;10.924;2022-10-26T11:21:35;6.90;;;1.80;;
8421;SDS011;4248;48.196;10.924;2022-10-26T11:26:57;12.43;;;3.40;;
8421;SDS011;4248;48.196;10.924;2022-10-26T11:38:08;6.47;;;2.03;;
8421;SDS011;4248;48.196;10.924;2022-10-26T11:46:12;32.77;;;14.07;;
8421;SDS011;4248;48.196;10.924;2022-10-26T11:48:45;13.73;;;2.60;;
8421;SDS011;4248;48.196;10.924;2022-10-26T11:51:15;6.93;;;2.27;;
8421;SDS011;4248;48.196;10.924;2022-10-26T11:53:47;12.40;;;2.23;;
8421;SDS011;4248;48.196;10.924;2022-10-26T11:56:22;8.20;;;2.60;;
8421;SDS011;4248;48.196;10.924;2022-10-26T11:58:54;9.13;;;2.23;;
8421;SDS011;4248;48.196;10.924;2022-10-26T12:01:21;10.03;;;2.57;;
8421;SDS011;4248;48.196;10.924;2022-10-26T12:03:48;10.70;;;2.90;;
8421;SDS011;4248;48.196;10.924;2022-10-26T12:06:19;13.37;;;2.67;;
8421;SDS011;4248;48.196;10.924;2022-10-26T12:11:43;10.00;;;2.90;;
8421;SDS011;4248;48.196;10.924;2022-10-26T12:17:17;11.47;;;2.37;;
8421;SDS011;4248;48.196;10.924;2022-10-26T12:22:52;5.27;;;2.10;;
8421;SDS011;4248;48.196;10.924;2022-10-26T12:25:19;11.23;;;2.47;;
8421;SDS011;4248;48.196;10.924;2022-10-26T12:30:13;16.50;;;2.47;;
8421;SDS011;4248;48.196;10.924;2022-10-26T12:32:55;8.17;;;2.50;;
8421;SDS011;4248;48.196;10.924;2022-10-26T12:53:58;10.43;;;2.80;;
8421;SDS011;4248;48.196;10.924;2022-10-26T12:56:31;6.53;;;2.07;;
8421;SDS011;4248;48.196;10.924;2022-10-26T13:07:26;7.60;;;2.50;;
8421;SDS011;4248;48.196;10.924;2022-10-26T13:12:51;16.80;;;2.67;;
8421;SDS011;4248;48.196;10.924;2022-10-26T13:15:25;10.37;;;2.23;;
8421;SDS011;4248;48.196;10.924;2022-10-26T13:17:53;15.07;;;2.03;;
8421;SDS011;4248;48.196;10.924;2022-10-26T13:20:35;7.87;;;2.27;;
8421;SDS011;4248;48.196;10.924;2022-10-26T13:23:15;7.90;;;1.93;;
8421;SDS011;4248;48.196;10.924;2022-10-26T13:26:03;5.00;;;1.97;;
8421;SDS011;4248;48.196;10.924;2022-10-26T13:41:46;15.97;;;2.43;;
8421;SDS011;4248;48.196;10.924;2022-10-26T13:50:19;7.10;;;2.27;;
8421;SDS011;4248;48.196;10.924;2022-10-26T13:52:50;11.13;;;2.60;;
8421;SDS011;4248;48.196;10.924;2022-10-26T13:55:32;13.73;;;2.57;;
8421;SDS011;4248;48.196;10.924;2022-10-26T14:03:49;8.43;;;2.80;;
8421;SDS011;4248;48.196;10.924;2022-10-26T14:06:23;15.90;;;2.90;;
8421;SDS011;4248;48.196;10.924;2022-10-26T14:09:13;5.77;;;2.10;;
8421;SDS011;4248;48.196;10.924;2022-10-26T14:11:57;8.53;;;2.83;;
8421;SDS011;4248;48.196;10.924;2022-10-26T14:14:27;7.03;;;2.63;;
8421;SDS011;4248;48.196;10.924;2022-10-26T14:16:55;8.50;;;2.37;;
8421;SDS011;4248;48.196;10.924;2022-10-26T14:19:24;10.60;;;2.00;;
8421;SDS011;4248;48.196;10.924;2022-10-26T14:21:50;8.23;;;2.43;;
8421;SDS011;4248;48.196;10.924;2022-10-26T14:24:25;12.33;;;2.53;;
8421;SDS011;4248;48.196;10.924;2022-10-26T14:26:53;9.43;;;2.63;;
8421;SDS011;4248;48.196;10.924;2022-10-26T14:29:20;5.40;;;1.90;;
8421;SDS011;4248;48.196;10.924;2022-10-26T14:31:48;6.43;;;2.60;;
8421;SDS011;4248;48.196;10.924;2022-10-26T14:34:15;9.80;;;2.10;;
8421;SDS011;4248;48.196;10.924;2022-10-26T14:36:45;9.80;;;2.10;;
8421;SDS011;4248;48.196;10.924;2022-10-26T14:39:30;8.53;;;2.53;;
8421;SDS011;4248;48.196;10.924;2022-10-26T14:42:00;9.67;;;3.70;;
8421;SDS011;4248;48.196;10.924;2022-10-26T14:44:35;10.17;;;3.23;;
8421;SDS011;4248;48.196;10.924;2022-10-26T14:47:02;10.83;;;2.30;;
8421;SDS011;4248;48.196;10.924;2022-10-26T14:49:28;7.20;;;2.50;;
8421;SDS011;4248;48.196;10.924;2022-10-26T14:51:57;11.40;;;2.63;;
8421;SDS011;4248;48.196;10.924;2022-10-26T14:54:28;9.30;;;2.87;;
8421;SDS011;4248;48.196;10.924;2022-10-26T14:56:54;9.73;;;2.73;;
8421;SDS011;4248;48.196;10.924;2022-10-26T14:59:21;4.67;;;2.30;;
8421;SDS011;4248;48.196;10.924;2022-10-26T15:01:52;14.63;;;2.60;;
8421;SDS011;4248;48.196;10.924;2022-10-26T15:04:37;10.70;;;2.83;;
8421;SDS011;4248;48.196;10.924;2022-10-26T15:09:37;5.27;;;2.00;;
8421;SDS011;4248;48.196;10.924;2022-10-26T15:14:51;11.00;;;3.30;;
8421;SDS011;4248;48.196;10.924;2022-10-26T15:17:20;14.97;;;3.17;;
8421;SDS011;4248;48.196;10.924;2022-10-26T15:19:51;16.70;;;3.40;;
8421;SDS011;4248;48.196;10.924;2022-10-26T15:22:27;17.90;;;3.37;;
8421;SDS011;4248;48.196;10.924;2022-10-26T15:24:54;34.10;;;15.53;;
8421;SDS011;4248;48.196;10.924;2022-10-26T15:27:22;11.13;;;4.43;;
8421;SDS011;4248;48.196;10.924;2022-10-26T15:29:49;8.57;;;3.03;;
8421;SDS011;4248;48.196;10.924;2022-10-26T15:32:35;8.40;;;3.10;;
8421;SDS011;4248;48.196;10.924;2022-10-26T15:37:39;12.90;;;4.70;;
8421;SDS011;4248;48.196;10.924;2022-10-26T15:40:05;48.93;;;25.97;;
8421;SDS011;4248;48.196;10.924;2022-10-26T15:42:31;37.10;;;23.17;;
8421;SDS011;4248;48.196;10.924;2022-10-26T15:45:02;18.23;;;9.50;;
8421;SDS011;4248;48.196;10.924;2022-10-26T15:47:30;27.20;;;15.53;;
8421;SDS011;4248;48.196;10.924;2022-10-26T15:49:58;31.47;;;15.83;;
8421;SDS011;4248;48.196;10.924;2022-10-26T15:52:24;36.67;;;21.00;;
8421;SDS011;4248;48.196;10.924;2022-10-26T15:54:50;32.53;;;18.20;;
8421;SDS011;4248;48.196;10.924;2022-10-26T15:57:15;21.13;;;12.93;;
8421;SDS011;4248;48.196;10.924;2022-10-26T15:59:41;28.03;;;10.60;;
8421;SDS011;4248;48.196;10.924;2022-10-26T16:02:13;7.93;;;4.80;;
8421;SDS011;4248;48.196;10.924;2022-10-26T16:04:39;17.30;;;8.53;;
8421;SDS011;4248;48.196;10.924;2022-10-26T16:07:07;18.30;;;6.80;;
8421;SDS011;4248;48.196;10.924;2022-10-26T16:09:39;10.83;;;3.67;;
8421;SDS011;4248;48.196;10.924;2022-10-26T16:12:11;11.60;;;4.20;;
8421;SDS011;4248;48.196;10.924;2022-10-26T16:14:38;9.50;;;3.37;;
8421;SDS011;4248;48.196;10.924;2022-10-26T16:17:04;17.40;;;4.10;;
8421;SDS011;4248;48.196;10.924;2022-10-26T16:19:31;8.40;;;3.70;;
8421;SDS011;4248;48.196;10.924;2022-10-26T16:21:58;11.03;;;3.00;;
8421;SDS011;4248;48.196;10.924;2022-10-26T16:24:25;12.70;;;3.63;;
8421;SDS011;4248;48.196;10.924;2022-10-26T16:26:51;13.73;;;5.00;;
8421;SDS011;4248;48.196;10.924;2022-10-26T16:29:17;31.07;;;13.97;;
8421;SDS011;4248;48.196;10.924;2022-10-26T16:31:43;62.57;;;29.73;;
8421;SDS011;4248;48.196;10.924;2022-10-26T16:34:09;136.60;;;66.60;;
8421;SDS011;4248;48.196;10.924;2022-10-26T16:36:35;89.33;;;39.83;;
8421;SDS011;4248;48.196;10.924;2022-10-26T16:39:02;29.63;;;14.97;;
8421;SDS011;4248;48.196;10.924;2022-10-26T16:41:29;42.23;;;20.67;;
8421;SDS011;4248;48.196;10.924;2022-10-26T16:43:56;25.60;;;8.80;;
8421;SDS011;4248;48.196;10.924;2022-10-26T16:46:22;19.17;;;5.20;;
8421;SDS011;4248;48.196;10.924;2022-10-26T16:48:48;19.20;;;5.60;;
8421;SDS011;4248;48.196;10.924;2022-10-26T16:53:42;14.30;;;4.70;;
8421;SDS011;4248;48.196;10.924;2022-10-26T16:56:11;19.07;;;5.20;;
8421;SDS011;4248;48.196;10.924;2022-10-26T16:58:38;14.27;;;5.27;;
8421;SDS011;4248;48.196;10.924;2022-10-26T17:01:05;24.20;;;6.60;;
8421;SDS011;4248;48.196;10.924;2022-10-26T17:03:32;13.03;;;6.10;;
8421;SDS011;4248;48.196;10.924;2022-10-26T17:06:01;16.87;;;7.90;;
8421;SDS011;4248;48.196;10.924;2022-10-26T17:08:29;15.63;;;8.50;;
8421;SDS011;4248;48.196;10.924;2022-10-26T17:11:04;19.57;;;10.70;;
8421;SDS011;4248;48.196;10.924;2022-10-26T17:13:32;26.53;;;9.30;;
8421;SDS011;4248;48.196;10.924;2022-10-26T17:16:05;24.90;;;11.03;;
8421;SDS011;4248;48.196;10.924;2022-10-26T17:18:39;28.07;;;9.70;;
8421;SDS011;4248;48.196;10.924;2022-10-26T17:21:05;22.07;;;10.63;;
8421;SDS011;4248;48.196;10.924;2022-10-26T17:23:32;16.67;;;8.33;;
8421;SDS011;4248;48.196;10.924;2022-10-26T17:26:04;19.60;;;7.50;;
8421;SDS011;4248;48.196;10.924;2022-10-26T17:28:31;20.97;;;9.13;;
8421;SDS011;4248;48.196;10.924;2022-10-26T17:33:37;22.53;;;11.03;;
8421;SDS011;4248;48.196;10.924;2022-10-26T17:36:04;28.57;;;10.70;;
8421;SDS011;4248;48.196;10.924;2022-10-26T17:38:32;26.53;;;9.50;;
8421;SDS011;4248;48.196;10.924;2022-10-26T17:41:02;16.83;;;7.37;;
8421;SDS011;4248;48.196;10.924;2022-10-26T17:43:30;14.40;;;6.40;;
8421;SDS011;4248;48.196;10.924;2022-10-26T17:46:00;14.00;;;6.13;;
8421;SDS011;4248;48.196;10.924;2022-10-26T17:48:28;22.93;;;7.67;;
8421;SDS011;4248;48.196;10.924;2022-10-26T17:50:56;14.03;;;5.97;;
8421;SDS011;4248;48.196;10.924;2022-10-26T17:53:23;8.10;;;4.53;;
8421;SDS011;4248;48.196;10.924;2022-10-26T17:55:49;13.93;;;5.70;;
8421;SDS011;4248;48.196;10.924;2022-10-26T17:58:23;66.13;;;25.10;;
8421;SDS011;4248;48.196;10.924;2022-10-26T18:00:49;36.20;;;16.77;;
8421;SDS011;4248;48.196;10.924;2022-10-26T18:03:14;18.33;;;6.57;;
8421;SDS011;4248;48.196;10.924;2022-10-26T18:05:40;17.93;;;6.10;;
8421;SDS011;4248;48.196;10.924;2022-10-26T18:08:05;35.60;;;9.80;;
8421;SDS011;4248;48.196;10.924;2022-10-26T18:10:31;29.90;;;12.37;;
8421;SDS011;4248;48.196;10.924;2022-10-26T18:12:57;26.47;;;11.30;;
8421;SDS011;4248;48.196;10.924;2022-10-26T18:15:22;28.17;;;11.80;;
8421;SDS011;4248;48.196;10.924;2022-10-26T18:17:49;46.80;;;14.53;;